• Join FlightAware (Why Join?)
  • Login
  • US Flag 
04:19PM EDT


 

Airport Tracker/Info


-or-


 

Live Flight TrackerFlight Track Log ✈ KAL1331 ✈ 09-Sep-2013 ✈ RKSS / GMP - RKJY / RSU

Flight Track Log - Related Links

Times and Time Zones

All times are in EDT time to prevent confusion due to time zone crossing. See the KAL1331 flight status page for this flight to view local times or setup timezone preferences in your user account.

Time Position Orientation Groundspeed Altitude Reporting Facility
EDT Latitude Longitude Course Direction KTS MPH feet Rate Location/Type
06:25PM 37.3567 126.8538 166° South  Level Estimated
06:26PM 37.2559 126.8853 166° South  Level Estimated
06:27PM 37.1551 126.9167 166° South  Level Estimated
06:28PM 37.0542 126.9481 166° South  Level Estimated
06:29PM 36.9534 126.9793 166° South  Level Estimated
06:30PM 36.8525 127.0105 166° South  Level Estimated
06:31PM 36.7517 127.0415 166° South  Level Estimated
06:32PM 36.6508 127.0725 166° South  Level Estimated
06:33PM 36.5499 127.1034 166° South  Level Estimated
06:34PM 36.4491 127.1343 166° South  Level Estimated
06:35PM 36.3482 127.1650 166° South  Level Estimated
06:36PM 36.2473 127.1957 166° South  Level Estimated
06:37PM 36.1464 127.2263 166° South  Level Estimated
06:38PM 36.0455 127.2568 166° South  Level Estimated
06:39PM 35.9445 127.2872 166° South  Level Estimated
06:40PM 35.8436 127.3176 166° South  Level Estimated
06:41PM 35.7427 127.3479 166° South  Level Estimated
06:42PM 35.6417 127.3781 166° South  Level Estimated
06:43PM 35.5408 127.4082 166° South  Level Estimated
06:44PM 35.4398 127.4383 166° South  Level Estimated
06:45PM 35.3389 127.4683 166° South  Level Estimated
06:46PM 35.2379 127.4982 166° South  Level Estimated
06:47PM 35.1369 127.5280 166° South  Level Estimated
06:48PM 35.0359 127.5578 166° South  Level Estimated
06:49PM 34.9349 127.5874 166° South  Level Estimated
06:50PM 34.8398 127.6153 166° South  Level Estimated
06:51PM 34.8398 127.6153 180° South  Level Estimated
06:52PM 34.8398 127.6153 180° South  Level Estimated
06:53PM 34.8398 127.6153 180° South  Level Estimated
06:54PM 34.8398 127.6153 180° South  Level Estimated
06:55PM 34.8398 127.6153 180° South  Level Estimated
06:56PM 34.8398 127.6153 180° South  Level Estimated
06:57PM 34.8398 127.6153 180° South  Level Estimated
06:58PM 34.8398 127.6153 180° South  Level Estimated
06:59PM 34.8398 127.6153 180° South  Level Estimated
07:00PM 34.8398 127.6153 180° South  Level Estimated
07:01PM 34.8398 127.6153 180° South  Level Estimated
07:02PM 34.8398 127.6153 180° South  Level Estimated
07:03PM 34.8398 127.6153 180° South  Level Estimated
07:04PM 34.8398 127.6153 180° South  Level Estimated
07:05PM 34.8398 127.6153 180° South  Level Estimated
07:06PM 34.8398 127.6153 180° South  Level Estimated